createdAt,value
2023-05-12T00:01:30.418Z,7.45
2023-05-12T00:03:57.804Z,7.60
2023-05-12T00:06:25.220Z,7.88
2023-05-12T00:08:52.349Z,7.03
2023-05-12T00:11:19.415Z,7.03
2023-05-12T00:13:46.533Z,6.10
2023-05-12T00:16:15.628Z,6.45
2023-05-12T00:18:42.789Z,5.68
2023-05-12T00:21:09.935Z,5.63
2023-05-12T00:23:37.101Z,4.88
2023-05-12T00:26:04.146Z,5.90
2023-05-12T00:28:31.816Z,5.63
2023-05-12T00:31:02.557Z,5.40
2023-05-12T00:33:29.698Z,4.85
2023-05-12T00:35:56.751Z,4.55
2023-05-12T00:38:23.949Z,4.85
2023-05-12T00:40:51.305Z,5.05
2023-05-12T00:43:18.372Z,5.50
2023-05-12T00:45:45.539Z,4.35
2023-05-12T00:48:12.746Z,5.18
2023-05-12T00:50:39.837Z,5.35
2023-05-12T00:53:07.258Z,5.30
2023-05-12T00:55:34.515Z,4.97
2023-05-12T00:58:01.580Z,4.93
2023-05-12T01:00:28.723Z,6.07
2023-05-12T01:02:58.639Z,6.18
2023-05-12T01:05:29.581Z,6.20
2023-05-12T01:07:57.283Z,7.60
2023-05-12T01:10:24.397Z,7.85
2023-05-12T01:12:51.487Z,7.00
2023-05-12T01:15:19.272Z,7.78
2023-05-12T01:17:51.443Z,8.07
2023-05-12T01:20:20.025Z,7.55
2023-05-12T01:22:48.593Z,8.07
2023-05-12T01:25:16.429Z,9.70
2023-05-12T01:27:43.843Z,8.77
2023-05-12T01:30:12.626Z,8.77
2023-05-12T01:32:40.464Z,9.13
2023-05-12T01:35:07.844Z,9.38
2023-05-12T01:37:34.890Z,10.88
2023-05-12T01:40:02.390Z,9.93
2023-05-12T01:42:29.511Z,10.88
2023-05-12T01:44:56.638Z,10.80
2023-05-12T01:47:23.785Z,10.23
2023-05-12T01:49:51.310Z,10.70
2023-05-12T01:52:18.441Z,10.00
2023-05-12T01:54:45.530Z,11.63
2023-05-12T01:57:12.738Z,11.57
2023-05-12T01:59:39.797Z,13.05
2023-05-12T02:02:07.003Z,12.50
2023-05-12T02:04:34.586Z,11.60
2023-05-12T02:07:02.087Z,12.88
2023-05-12T02:09:29.198Z,11.88
2023-05-12T02:11:56.313Z,11.57
2023-05-12T02:14:23.545Z,11.63
2023-05-12T02:16:52.917Z,12.70
2023-05-12T02:19:20.965Z,13.15
2023-05-12T02:21:48.496Z,13.70
2023-05-12T02:24:16.564Z,14.13
2023-05-12T02:26:43.799Z,13.57
2023-05-12T02:29:11.923Z,14.20
2023-05-12T02:31:39.244Z,13.50
2023-05-12T02:34:06.892Z,14.68
2023-05-12T02:36:34.024Z,15.02
2023-05-12T02:39:01.143Z,13.35
2023-05-12T02:41:28.207Z,14.52
2023-05-12T02:43:55.345Z,14.20
2023-05-12T02:46:22.521Z,14.93
2023-05-12T02:48:49.732Z,15.77
2023-05-12T02:51:16.807Z,15.00
2023-05-12T02:53:43.885Z,15.55
2023-05-12T02:56:11.217Z,14.93
2023-05-12T02:58:38.320Z,15.00
2023-05-12T03:01:10.582Z,16.13
2023-05-12T03:03:38.883Z,15.80
2023-05-12T03:06:06.553Z,16.35
2023-05-12T03:08:33.812Z,16.33
2023-05-12T03:11:01.072Z,14.60
2023-05-12T03:13:28.210Z,16.17
2023-05-12T03:15:55.825Z,15.73
2023-05-12T03:18:23.081Z,16.58
2023-05-12T03:20:50.534Z,16.50
2023-05-12T03:23:17.649Z,17.27
2023-05-12T03:25:44.794Z,16.73
2023-05-12T03:28:12.950Z,16.30
2023-05-12T03:30:40.171Z,15.60
2023-05-12T03:33:07.456Z,15.57
2023-05-12T03:35:34.605Z,16.02
2023-05-12T03:38:01.822Z,16.17
2023-05-12T03:40:28.976Z,17.38
2023-05-12T03:42:56.159Z,15.60
2023-05-12T03:45:23.452Z,17.60
2023-05-12T03:47:50.683Z,15.98
2023-05-12T03:50:18.082Z,16.75
2023-05-12T03:52:45.463Z,16.60
2023-05-12T03:55:13.573Z,18.88
2023-05-12T03:57:41.039Z,18.13
2023-05-12T04:00:08.796Z,18.20
2023-05-12T04:02:36.167Z,17.55
2023-05-12T04:05:03.644Z,18.63
2023-05-12T04:07:30.748Z,18.60
2023-05-12T04:09:58.003Z,18.30
2023-05-12T04:12:25.302Z,17.55
2023-05-12T04:14:53.400Z,17.25
2023-05-12T04:17:20.501Z,16.88
2023-05-12T04:19:47.676Z,19.30
2023-05-12T04:22:14.822Z,18.95
2023-05-12T04:24:41.885Z,19.42
2023-05-12T04:27:09.159Z,18.63
2023-05-12T04:29:36.379Z,18.30
2023-05-12T04:32:04.101Z,18.08
2023-05-12T04:34:31.259Z,18.80
2023-05-12T04:36:58.273Z,18.15
2023-05-12T04:39:25.527Z,18.20
2023-05-12T04:41:52.704Z,16.95
2023-05-12T04:44:19.848Z,16.98
2023-05-12T04:46:47.016Z,15.90
2023-05-12T04:49:14.653Z,18.20
2023-05-12T04:51:44.451Z,17.83
2023-05-12T04:54:11.850Z,16.35
2023-05-12T04:56:38.996Z,16.17
2023-05-12T04:59:06.662Z,15.30
2023-05-12T05:01:33.916Z,15.88
2023-05-12T05:04:01.184Z,16.50
2023-05-12T05:06:28.451Z,16.63
2023-05-12T05:08:55.909Z,15.82
2023-05-12T05:11:23.278Z,15.70
2023-05-12T05:13:50.466Z,17.55
2023-05-12T05:16:17.718Z,15.80
2023-05-12T05:18:48.111Z,15.35
2023-05-12T05:21:15.385Z,15.98
2023-05-12T05:23:43.093Z,14.32
2023-05-12T05:26:10.685Z,14.30
2023-05-12T05:28:40.097Z,14.13
2023-05-12T05:31:07.738Z,14.35
2023-05-12T05:33:35.322Z,14.07
2023-05-12T05:36:03.242Z,12.88
2023-05-12T05:38:30.521Z,12.32
2023-05-12T05:40:57.853Z,12.77
2023-05-12T05:43:25.081Z,12.80
2023-05-12T05:45:52.353Z,12.60
2023-05-12T05:48:19.861Z,12.80
2023-05-12T05:50:46.946Z,12.77
2023-05-12T05:53:14.099Z,13.63
2023-05-12T05:55:42.403Z,12.48
2023-05-12T05:58:09.660Z,14.40
2023-05-12T06:00:37.126Z,13.10
2023-05-12T06:03:04.662Z,12.25
2023-05-12T06:05:31.840Z,12.18
2023-05-12T06:07:58.910Z,13.38
2023-05-12T06:10:26.127Z,13.43
2023-05-12T06:12:53.445Z,13.02
2023-05-12T06:15:20.817Z,12.07
2023-05-12T06:17:48.135Z,12.68
2023-05-12T06:20:15.445Z,12.85
2023-05-12T06:22:42.654Z,11.90
2023-05-12T06:25:09.815Z,11.82
2023-05-12T06:27:37.052Z,12.25
2023-05-12T06:30:04.376Z,11.55
2023-05-12T06:32:31.829Z,10.90
2023-05-12T06:34:59.069Z,11.00
2023-05-12T06:37:26.249Z,12.18
2023-05-12T06:39:53.362Z,11.63
2023-05-12T06:42:20.438Z,12.32
2023-05-12T06:44:47.565Z,12.65
2023-05-12T06:47:14.692Z,11.65
2023-05-12T06:49:41.805Z,12.02
2023-05-12T06:52:08.918Z,11.05
2023-05-12T06:54:36.007Z,10.75
2023-05-12T06:57:03.122Z,11.00
2023-05-12T06:59:30.810Z,11.15
2023-05-12T07:01:58.004Z,11.02
2023-05-12T07:04:26.823Z,10.38
2023-05-12T07:06:54.140Z,10.82
2023-05-12T07:09:21.294Z,10.90
2023-05-12T07:11:48.642Z,9.40
2023-05-12T07:14:15.848Z,9.95
2023-05-12T07:16:43.057Z,11.13
2023-05-12T07:19:10.436Z,9.52
2023-05-12T07:21:37.928Z,11.18
2023-05-12T07:24:06.280Z,10.82
2023-05-12T07:26:33.698Z,10.82
2023-05-12T07:29:01.410Z,9.65
2023-05-12T07:31:29.081Z,10.43
2023-05-12T07:33:56.228Z,10.63
2023-05-12T07:36:26.814Z,10.75
2023-05-12T07:38:53.945Z,9.57
2023-05-12T07:41:21.194Z,9.57
2023-05-12T07:43:48.324Z,8.75
2023-05-12T07:46:15.387Z,10.20
2023-05-12T07:48:42.503Z,9.93
2023-05-12T07:51:09.789Z,9.95
2023-05-12T07:53:37.223Z,10.10
2023-05-12T07:56:04.448Z,9.57
2023-05-12T07:58:31.541Z,9.65
2023-05-12T08:01:00.376Z,9.73
2023-05-12T08:03:27.668Z,9.05
2023-05-12T08:05:54.835Z,9.52
2023-05-12T08:08:22.043Z,9.95
2023-05-12T08:10:49.184Z,9.77
2023-05-12T08:13:16.345Z,9.85
2023-05-12T08:15:43.733Z,10.32
2023-05-12T08:18:11.071Z,9.48
2023-05-12T08:20:38.246Z,10.38
2023-05-12T08:23:05.354Z,9.48
2023-05-12T08:25:34.755Z,9.13
2023-05-12T08:28:01.997Z,9.70
2023-05-12T08:30:29.229Z,10.60
2023-05-12T08:32:56.867Z,9.30
2023-05-12T08:35:27.867Z,8.15
2023-05-12T08:37:55.119Z,9.00
2023-05-12T08:40:23.312Z,8.60
2023-05-12T08:42:56.564Z,9.20
2023-05-12T08:45:24.053Z,9.60
2023-05-12T08:47:51.983Z,9.13
2023-05-12T08:50:22.281Z,8.85
2023-05-12T08:52:50.624Z,9.35
2023-05-12T08:55:18.723Z,9.00
2023-05-12T08:57:48.485Z,9.45
2023-05-12T09:00:16.526Z,8.65
2023-05-12T09:02:52.704Z,9.07
2023-05-12T09:05:21.845Z,9.55
2023-05-12T09:07:49.976Z,9.48
2023-05-12T09:10:32.726Z,9.48
2023-05-12T09:13:05.363Z,8.65
2023-05-12T09:15:39.266Z,9.30
2023-05-12T09:18:06.598Z,8.65
2023-05-12T09:20:33.976Z,9.13
2023-05-12T09:23:11.955Z,9.13
2023-05-12T09:25:39.073Z,9.43
2023-05-12T09:28:06.308Z,9.35
2023-05-12T09:30:38.029Z,9.82
2023-05-12T09:33:11.900Z,7.80
2023-05-12T09:35:43.203Z,8.00
2023-05-12T09:38:11.953Z,8.07
2023-05-12T09:40:39.828Z,7.82
2023-05-12T09:43:07.650Z,8.30
2023-05-12T09:45:42.404Z,8.30
2023-05-12T09:48:13.018Z,8.27
2023-05-12T09:50:50.596Z,8.20
2023-05-12T09:53:19.288Z,7.00
2023-05-12T09:55:47.405Z,7.03
2023-05-12T09:58:15.937Z,7.20
2023-05-12T10:01:06.513Z,6.75
2023-05-12T10:03:31.661Z,6.53
2023-05-12T10:05:59.948Z,6.97
2023-05-12T10:08:53.456Z,6.38
2023-05-12T10:11:21.439Z,5.85
2023-05-12T10:13:48.801Z,6.07
2023-05-12T10:16:16.460Z,5.43
2023-05-12T10:18:47.058Z,5.50
2023-05-12T10:21:14.862Z,4.18
2023-05-12T10:23:42.885Z,5.60
2023-05-12T10:26:11.456Z,5.72
2023-05-12T10:28:38.886Z,4.10
2023-05-12T10:31:07.425Z,4.80
2023-05-12T10:33:34.647Z,5.30
2023-05-12T10:36:01.868Z,5.45
2023-05-12T10:38:36.206Z,5.25
2023-05-12T10:41:05.604Z,4.95
2023-05-12T10:43:43.602Z,5.72
2023-05-12T10:46:16.025Z,4.13
2023-05-12T10:48:51.903Z,4.35
2023-05-12T10:51:29.307Z,4.47
2023-05-12T10:54:01.029Z,4.55
2023-05-12T10:56:48.889Z,3.90
2023-05-12T10:59:24.158Z,3.78
2023-05-12T11:02:17.118Z,4.22
2023-05-12T11:04:53.131Z,3.95
2023-05-12T11:07:26.645Z,3.80
2023-05-12T11:09:59.381Z,3.85
2023-05-12T11:12:32.516Z,3.90
2023-05-12T11:15:01.479Z,3.53
2023-05-12T11:17:28.921Z,3.63
2023-05-12T11:19:59.360Z,3.70
2023-05-12T11:22:26.750Z,3.65
2023-05-12T11:24:53.989Z,4.13
2023-05-12T11:27:23.352Z,4.03
2023-05-12T11:30:00.566Z,3.70
2023-05-12T11:32:28.536Z,3.22
2023-05-12T11:34:55.906Z,2.75
2023-05-12T11:37:23.242Z,2.58
2023-05-12T11:39:52.766Z,2.90
2023-05-12T11:42:21.171Z,3.17
2023-05-12T11:44:50.669Z,3.20
2023-05-12T11:47:18.565Z,3.28
2023-05-12T11:49:55.971Z,3.42
2023-05-12T11:52:23.952Z,3.20
2023-05-12T11:54:52.003Z,2.92
2023-05-12T11:57:29.077Z,2.75
2023-05-12T12:00:02.316Z,2.88
2023-05-12T12:02:29.952Z,3.00
2023-05-12T12:04:57.924Z,2.90
2023-05-12T12:07:43.227Z,2.55
2023-05-12T12:10:14.219Z,2.20
2023-05-12T12:12:44.442Z,3.00
2023-05-12T12:15:11.943Z,2.40
2023-05-12T12:17:40.044Z,2.30
2023-05-12T12:20:08.216Z,2.97
2023-05-12T12:22:35.580Z,2.80
2023-05-12T12:25:03.255Z,2.70
2023-05-12T12:27:30.490Z,2.78
2023-05-12T12:29:57.555Z,2.45
2023-05-12T12:32:24.732Z,2.55
2023-05-12T12:34:52.747Z,2.35
2023-05-12T12:37:19.910Z,1.98
2023-05-12T12:39:48.036Z,2.03
2023-05-12T12:42:15.726Z,2.30
2023-05-12T12:44:43.134Z,2.20
2023-05-12T12:47:10.556Z,3.05
2023-05-12T12:49:37.734Z,2.70
2023-05-12T12:52:05.135Z,2.70
2023-05-12T12:54:32.575Z,2.85
2023-05-12T12:56:59.733Z,3.88
2023-05-12T12:59:27.199Z,2.67
2023-05-12T13:01:54.377Z,2.85
2023-05-12T13:04:23.018Z,2.80
2023-05-12T13:06:50.410Z,2.70
2023-05-12T13:09:19.663Z,2.60
2023-05-12T13:11:47.164Z,3.30
2023-05-12T13:14:14.264Z,3.30
2023-05-12T13:16:41.761Z,2.90
2023-05-12T13:19:09.092Z,3.40
2023-05-12T13:21:36.183Z,3.08
2023-05-12T13:24:03.306Z,3.03
2023-05-12T13:26:30.444Z,3.08
2023-05-12T13:28:57.578Z,2.58
2023-05-12T13:31:24.953Z,2.65
2023-05-12T13:33:52.127Z,2.58
2023-05-12T13:36:19.199Z,2.50
2023-05-12T13:38:48.975Z,2.53
2023-05-12T13:41:16.082Z,2.63
2023-05-12T13:43:43.913Z,2.63
2023-05-12T13:46:11.015Z,2.92
2023-05-12T13:48:38.220Z,2.60
2023-05-12T13:51:05.476Z,3.15
2023-05-12T13:53:32.929Z,2.63
2023-05-12T13:56:00.039Z,2.60
2023-05-12T13:58:27.259Z,2.30
2023-05-12T14:00:54.518Z,2.70
2023-05-12T14:03:21.839Z,2.60
2023-05-12T14:05:49.032Z,2.47
2023-05-12T14:08:16.609Z,2.47
2023-05-12T14:10:44.639Z,1.90
2023-05-12T14:13:13.792Z,2.22
2023-05-12T14:15:48.740Z,2.63
2023-05-12T14:18:17.204Z,1.92
2023-05-12T14:20:44.416Z,1.77
2023-05-12T14:23:12.282Z,2.38
2023-05-12T14:25:39.725Z,2.10
2023-05-12T14:28:07.123Z,1.92
2023-05-12T14:30:37.658Z,1.90
2023-05-12T14:33:05.175Z,1.83
2023-05-12T14:35:32.482Z,1.77
2023-05-12T14:37:59.631Z,1.92
2023-05-12T14:40:27.481Z,2.28
2023-05-12T14:42:55.368Z,1.92
2023-05-12T14:45:23.296Z,1.60
2023-05-12T14:47:50.804Z,1.83
2023-05-12T14:50:19.050Z,1.75
2023-05-12T14:52:46.598Z,1.60
2023-05-12T14:55:14.805Z,1.77
2023-05-12T14:57:42.304Z,1.70
2023-05-12T15:00:13.353Z,2.00
2023-05-12T15:02:41.087Z,1.75
2023-05-12T15:05:09.418Z,1.95
2023-05-12T15:07:36.945Z,2.15
2023-05-12T15:10:04.859Z,1.52
2023-05-12T15:12:32.157Z,1.63
2023-05-12T15:15:04.412Z,1.80
2023-05-12T15:17:31.918Z,1.80
2023-05-12T15:19:59.364Z,1.90
2023-05-12T15:22:26.635Z,1.80
2023-05-12T15:24:53.764Z,1.55
2023-05-12T15:27:21.239Z,1.90
2023-05-12T15:29:48.309Z,1.58
2023-05-12T15:32:16.200Z,1.80
2023-05-12T15:34:44.361Z,1.50
2023-05-12T15:37:12.599Z,1.52
2023-05-12T15:39:40.930Z,1.48
2023-05-12T15:42:09.394Z,1.50
2023-05-12T15:44:37.962Z,1.50
2023-05-12T15:47:06.639Z,1.20
2023-05-12T15:49:34.304Z,1.27
2023-05-12T15:52:05.307Z,1.58
2023-05-12T15:54:33.394Z,1.40
2023-05-12T15:57:02.210Z,1.50
2023-05-12T15:59:30.066Z,1.48
2023-05-12T16:01:58.943Z,1.40
2023-05-12T16:04:29.935Z,1.30
2023-05-12T16:06:58.490Z,1.30
2023-05-12T16:09:26.716Z,1.20
2023-05-12T16:11:54.924Z,1.25
2023-05-12T16:14:22.147Z,1.13
2023-05-12T16:16:49.856Z,1.42
2023-05-12T16:19:17.052Z,1.20
2023-05-12T16:21:44.602Z,1.35
2023-05-12T16:24:12.913Z,1.38
2023-05-12T16:26:41.214Z,1.30
2023-05-12T16:29:08.808Z,1.23
2023-05-12T16:31:36.667Z,1.52
2023-05-12T16:34:04.316Z,1.52
2023-05-12T16:36:32.725Z,1.40
2023-05-12T16:39:00.008Z,1.30
2023-05-12T16:41:29.148Z,1.45
2023-05-12T16:43:56.858Z,1.27
2023-05-12T16:46:24.478Z,1.42
2023-05-12T16:48:51.818Z,1.45
2023-05-12T16:51:19.055Z,1.65
2023-05-12T16:53:46.399Z,1.30
2023-05-12T16:56:13.759Z,1.63
2023-05-12T16:58:40.985Z,1.40
2023-05-12T17:01:08.184Z,1.30
2023-05-12T17:03:35.530Z,1.50
2023-05-12T17:06:03.002Z,1.17
2023-05-12T17:08:30.084Z,1.50
2023-05-12T17:10:57.546Z,1.45
2023-05-12T17:13:24.776Z,1.70
2023-05-12T17:15:52.402Z,1.80
2023-05-12T17:18:20.269Z,1.50
2023-05-12T17:20:47.346Z,1.75
2023-05-12T17:23:14.562Z,1.40
2023-05-12T17:25:41.698Z,2.20
2023-05-12T17:28:11.888Z,1.58
2023-05-12T17:30:38.956Z,1.90
2023-05-12T17:33:07.862Z,1.60
2023-05-12T17:35:35.013Z,2.17
2023-05-12T17:38:02.488Z,1.67
2023-05-12T17:40:29.778Z,1.52
2023-05-12T17:42:56.842Z,1.67
2023-05-12T17:45:24.514Z,1.65
2023-05-12T17:47:51.868Z,1.88
2023-05-12T17:50:19.291Z,2.00
2023-05-12T17:52:46.897Z,1.85
2023-05-12T17:55:13.973Z,1.80
2023-05-12T17:57:41.316Z,1.90
2023-05-12T18:00:11.752Z,1.80
2023-05-12T18:02:39.261Z,2.13
2023-05-12T18:05:06.594Z,2.20
2023-05-12T18:07:33.956Z,1.70
2023-05-12T18:10:01.064Z,1.90
2023-05-12T18:12:28.182Z,2.00
2023-05-12T18:14:55.269Z,2.05
2023-05-12T18:17:22.661Z,1.95
2023-05-12T18:19:50.000Z,2.03
2023-05-12T18:22:18.374Z,2.85
2023-05-12T18:24:45.725Z,2.20
2023-05-12T18:27:12.977Z,2.25
2023-05-12T18:29:40.212Z,2.05
2023-05-12T18:32:07.840Z,3.00
2023-05-12T18:34:35.054Z,2.83
2023-05-12T18:37:02.579Z,2.40
2023-05-12T18:39:29.701Z,3.22
2023-05-12T18:41:57.583Z,3.50
2023-05-12T18:44:24.792Z,3.28
2023-05-12T18:46:52.129Z,2.70
2023-05-12T18:49:19.261Z,2.90
2023-05-12T18:51:46.474Z,3.00
2023-05-12T18:54:13.636Z,2.80
2023-05-12T18:56:41.037Z,3.20
2023-05-12T18:59:08.149Z,2.45
2023-05-12T19:01:35.279Z,3.63
2023-05-12T19:04:02.468Z,2.67
2023-05-12T19:06:29.991Z,3.05
2023-05-12T19:08:57.189Z,2.85
2023-05-12T19:11:24.289Z,2.85
2023-05-12T19:13:52.364Z,3.35
2023-05-12T19:16:19.741Z,2.97
2023-05-12T19:18:47.126Z,2.45
2023-05-12T19:21:14.532Z,2.47
2023-05-12T19:23:41.624Z,2.80
2023-05-12T19:26:10.686Z,2.63
2023-05-12T19:28:37.993Z,2.63
2023-05-12T19:31:05.229Z,2.75
2023-05-12T19:33:33.703Z,2.50
2023-05-12T19:36:00.839Z,2.40
2023-05-12T19:38:27.956Z,2.50
2023-05-12T19:40:55.728Z,2.42
2023-05-12T19:43:23.036Z,3.28
2023-05-12T19:45:50.431Z,2.45
2023-05-12T19:48:17.922Z,2.63
2023-05-12T19:50:46.515Z,2.72
2023-05-12T19:53:13.663Z,3.13
2023-05-12T19:55:40.776Z,2.60
2023-05-12T19:58:09.839Z,2.67
2023-05-12T20:00:39.300Z,2.08
2023-05-12T20:03:06.996Z,2.35
2023-05-12T20:05:37.773Z,2.47
2023-05-12T20:08:05.270Z,2.60
2023-05-12T20:10:32.404Z,2.88
2023-05-12T20:12:59.674Z,2.20
2023-05-12T20:15:27.092Z,1.98
2023-05-12T20:17:54.189Z,2.20
2023-05-12T20:20:21.605Z,1.98
2023-05-12T20:22:49.725Z,1.80
2023-05-12T20:25:17.959Z,2.17
2023-05-12T20:27:45.305Z,2.28
2023-05-12T20:30:12.954Z,2.10
2023-05-12T20:32:40.240Z,2.15
2023-05-12T20:35:07.498Z,2.22
2023-05-12T20:37:34.570Z,2.17
2023-05-12T20:40:02.358Z,2.28
2023-05-12T20:42:29.718Z,2.13
2023-05-12T20:44:57.353Z,2.00
2023-05-12T20:47:24.802Z,2.17
2023-05-12T20:49:56.303Z,1.98
2023-05-12T20:52:23.822Z,1.90
2023-05-12T20:54:56.269Z,1.83
2023-05-12T20:57:23.479Z,1.90
2023-05-12T20:59:52.575Z,2.08
2023-05-12T21:02:20.043Z,1.88
2023-05-12T21:04:47.175Z,2.25
2023-05-12T21:07:14.231Z,2.20
2023-05-12T21:09:41.301Z,2.83
2023-05-12T21:12:08.575Z,2.35
2023-05-12T21:14:39.420Z,2.38
2023-05-12T21:17:07.492Z,1.90
2023-05-12T21:19:38.011Z,2.17
2023-05-12T21:22:06.161Z,2.40
2023-05-12T21:24:33.460Z,2.15
2023-05-12T21:27:03.698Z,2.17
2023-05-12T21:29:31.704Z,2.00
2023-05-12T21:31:58.855Z,2.35
2023-05-12T21:34:26.140Z,2.45
2023-05-12T21:36:53.325Z,2.17
2023-05-12T21:39:20.456Z,2.35
2023-05-12T21:41:47.568Z,2.38
2023-05-12T21:44:14.599Z,2.45
2023-05-12T21:46:42.624Z,2.65
2023-05-12T21:49:09.829Z,2.50
2023-05-12T21:51:37.002Z,2.92
2023-05-12T21:54:04.176Z,2.55
2023-05-12T21:56:31.384Z,2.50
2023-05-12T21:58:58.537Z,2.83
2023-05-12T22:01:25.674Z,2.83
2023-05-12T22:03:52.938Z,2.88
2023-05-12T22:06:20.230Z,2.38
2023-05-12T22:08:47.312Z,2.92
2023-05-12T22:11:14.594Z,3.03
2023-05-12T22:13:41.746Z,2.60
2023-05-12T22:16:08.929Z,2.55
2023-05-12T22:18:37.552Z,3.03
2023-05-12T22:21:04.629Z,3.05
2023-05-12T22:23:31.860Z,2.90
2023-05-12T22:25:59.020Z,3.90
2023-05-12T22:28:26.094Z,3.55
2023-05-12T22:30:53.191Z,2.58
2023-05-12T22:33:20.364Z,3.05
2023-05-12T22:35:47.464Z,3.50
2023-05-12T22:38:14.590Z,3.10
2023-05-12T22:40:42.890Z,2.83
2023-05-12T22:43:12.522Z,3.03
2023-05-12T22:45:39.649Z,2.95
2023-05-12T22:48:06.891Z,3.10
2023-05-12T22:50:34.043Z,3.33
2023-05-12T22:53:01.141Z,3.35
2023-05-12T22:55:31.017Z,2.88
2023-05-12T22:57:59.633Z,3.03
2023-05-12T23:00:27.411Z,3.25
2023-05-12T23:02:54.665Z,2.55
2023-05-12T23:05:21.883Z,3.90
2023-05-12T23:07:48.987Z,3.05
2023-05-12T23:10:16.167Z,2.92
2023-05-12T23:12:43.257Z,3.22
2023-05-12T23:15:10.570Z,2.90
2023-05-12T23:17:37.713Z,3.38
2023-05-12T23:20:05.591Z,3.13
2023-05-12T23:22:32.631Z,3.20
2023-05-12T23:24:59.720Z,3.90
2023-05-12T23:27:26.975Z,3.72
2023-05-12T23:29:54.236Z,3.60
2023-05-12T23:32:22.302Z,3.38
2023-05-12T23:34:49.666Z,4.15
2023-05-12T23:37:16.941Z,3.60
2023-05-12T23:39:44.040Z,3.88
2023-05-12T23:42:11.105Z,4.30
2023-05-12T23:44:38.158Z,4.05
2023-05-12T23:47:05.641Z,4.13
2023-05-12T23:49:32.771Z,4.13
2023-05-12T23:51:59.838Z,4.30
2023-05-12T23:54:27.071Z,4.43
2023-05-12T23:56:54.151Z,4.50
2023-05-12T23:59:21.279Z,4.38
